Time;durP1;ratioP1;P1;durP2;ratioP2;P2;SDS_P1;SDS_P2;PMS_P1;PMS_P2;Temp;Humidity;BMP_temperature;BMP_pressure;BME280_temperature;BME280_humidity;BME280_pressure;Samples;Min_cycle;Max_cycle;Signal;HPM_P1;HPM_P2
2022/12/08 00:15:22;;;;;;;26.98;17.50;;;10.30;79.30;;;;;;21006630;28;20056;-62
2022/12/08 00:25:24;;;;;;;27.00;19.10;;;10.20;79.70;;;;;;20987556;28;20064;-59
2022/12/08 00:35:26;;;;;;;28.30;17.63;;;10.20;79.70;;;;;;21004983;28;20048;-60
2022/12/08 00:45:28;;;;;;;25.83;16.83;;;10.20;79.80;;;;;;21003714;28;20055;-64
2022/12/08 00:55:30;;;;;;;30.25;17.65;;;10.20;79.80;;;;;;21003706;28;20529;-58
2022/12/08 01:05:31;;;;;;;28.42;19.10;;;10.20;79.80;;;;;;21001529;28;20137;-58
2022/12/08 01:15:34;;;;;;;29.30;19.27;;;10.20;79.80;;;;;;21002531;28;20423;-62
2022/12/08 01:25:36;;;;;;;33.65;19.17;;;10.20;80.00;;;;;;20992463;28;20397;-59
2022/12/08 01:35:39;;;;;;;30.10;19.15;;;10.30;79.60;;;;;;21000617;28;20417;-63
2022/12/08 01:45:41;;;;;;;25.77;17.83;;;10.30;80.20;;;;;;20999763;28;20059;-62
2022/12/08 01:55:49;;;;;;;29.88;19.85;;;10.30;80.20;;;;;;21006249;28;20052;-62
2022/12/08 02:05:52;;;;;;;34.40;19.98;;;10.30;80.10;;;;;;20998517;28;20055;-63
2022/12/08 02:16:15;;;;;;;30.13;20.77;;;10.30;80.10;;;;;;20995478;28;20136;-62
2022/12/08 02:26:46;;;;;;;28.55;18.77;;;10.40;80.10;;;;;;20995359;28;20048;-63
2022/12/08 02:37:14;;;;;;;26.50;18.40;;;10.40;80.60;;;;;;20995772;28;20052;-62
2022/12/08 02:47:23;;;;;;;27.13;17.50;;;10.70;81.20;;;;;;20996106;28;20480;-62
2022/12/08 02:57:52;;;;;;;24.73;16.48;;;10.70;81.30;;;;;;20995502;28;20433;-64
2022/12/08 03:08:06;;;;;;;22.85;16.55;;;10.90;81.10;;;;;;20995224;28;20049;-64
2022/12/08 03:18:14;;;;;;;16.90;13.10;;;11.00;80.90;;;;;;20995727;28;20074;-63
2022/12/08 03:28:17;;;;;;;17.45;12.68;;;11.00;80.40;;;;;;20999405;28;20519;-63
2022/12/08 03:38:21;;;;;;;18.75;11.43;;;11.00;79.90;;;;;;20991682;28;20052;-60
2022/12/08 03:48:23;;;;;;;22.85;14.98;;;11.00;79.90;;;;;;21007921;28;20051;-62
2022/12/08 03:58:26;;;;;;;18.65;12.75;;;11.00;80.50;;;;;;21008641;28;20052;-63
2022/12/08 04:08:28;;;;;;;20.00;13.07;;;10.80;81.70;;;;;;21006907;28;20044;-61
2022/12/08 04:18:31;;;;;;;20.08;13.93;;;10.70;82.30;;;;;;21006425;28;20481;-61
2022/12/08 04:28:34;;;;;;;20.75;13.65;;;10.70;82.70;;;;;;21005741;28;20147;-58
2022/12/08 04:38:36;;;;;;;13.88;10.32;;;10.70;82.60;;;;;;21004944;28;20435;-58
2022/12/08 04:48:48;;;;;;;14.10;10.07;;;10.60;82.90;;;;;;21005342;28;20385;-57
2022/12/08 04:58:51;;;;;;;14.60;8.20;;;10.60;82.90;;;;;;21004053;28;20122;-62
2022/12/08 05:08:54;;;;;;;11.30;7.47;;;10.60;82.90;;;;;;20984200;28;20040;-63
2022/12/08 05:18:56;;;;;;;10.18;6.28;;;10.60;82.60;;;;;;21003049;28;20048;-62
2022/12/08 05:28:58;;;;;;;10.57;6.97;;;10.70;82.10;;;;;;21000531;28;20055;-62
2022/12/08 05:39:00;;;;;;;10.15;6.88;;;10.60;82.10;;;;;;21000010;28;20507;-62
2022/12/08 05:49:21;;;;;;;10.07;7.28;;;10.70;82.10;;;;;;20984493;28;20048;-63
2022/12/08 05:59:39;;;;;;;11.48;7.40;;;10.60;82.00;;;;;;20998310;28;20052;-64
2022/12/08 06:09:45;;;;;;;12.25;8.13;;;10.60;82.10;;;;;;20997398;28;20144;-62
2022/12/08 06:19:48;;;;;;;12.45;8.13;;;10.50;82.20;;;;;;20996771;28;20087;-61
2022/12/08 06:29:51;;;;;;;11.85;7.53;;;10.60;82.20;;;;;;20996791;28;20052;-60
2022/12/08 06:39:53;;;;;;;13.95;8.35;;;10.60;82.30;;;;;;20995812;28;20406;-60
2022/12/08 06:49:55;;;;;;;16.98;8.55;;;10.60;82.60;;;;;;20995429;28;20056;-60
2022/12/08 06:59:56;;;;;;;14.55;8.57;;;10.60;82.90;;;;;;20996047;28;20044;-62
2022/12/08 07:09:58;;;;;;;12.10;7.70;;;10.60;82.80;;;;;;21014224;28;20132;-63
2022/12/08 07:20:01;;;;;;;14.43;7.60;;;10.60;82.80;;;;;;21015175;28;20095;-58
2022/12/08 07:30:03;;;;;;;15.50;10.52;;;10.60;83.00;;;;;;21009418;28;20048;-60
2022/12/08 07:40:07;;;;;;;13.32;7.80;;;10.50;83.30;;;;;;21008654;28;20053;-62
2022/12/08 07:50:08;;;;;;;13.93;7.70;;;10.50;83.50;;;;;;21008569;28;20129;-63
2022/12/08 08:00:10;;;;;;;16.67;8.40;;;10.50;83.60;;;;;;21008077;28;20049;-58
2022/12/08 08:10:12;;;;;;;15.00;8.88;;;10.50;83.60;;;;;;21008555;28;20056;-61
2022/12/08 08:20:14;;;;;;;15.55;9.35;;;10.60;83.60;;;;;;21005477;28;20471;-61
2022/12/08 08:30:16;;;;;;;15.30;9.80;;;10.60;83.70;;;;;;20987596;28;20544;-61
2022/12/08 08:40:18;;;;;;;18.60;9.85;;;10.50;84.00;;;;;;21005015;28;20102;-61
2022/12/08 08:50:20;;;;;;;23.45;13.20;;;10.60;84.40;;;;;;21004214;28;20048;-59
2022/12/08 09:00:21;;;;;;;17.15;10.10;;;10.50;84.60;;;;;;21003722;28;20060;-60
2022/12/08 09:10:23;;;;;;;16.63;9.55;;;10.50;85.00;;;;;;20989509;28;20045;-61
2022/12/08 09:20:25;;;;;;;15.20;9.20;;;10.80;84.30;;;;;;20997091;28;20401;-61
2022/12/08 09:30:26;;;;;;;12.90;8.48;;;10.90;85.10;;;;;;20995562;28;20079;-56
2022/12/08 09:40:31;;;;;;;15.10;8.25;;;11.90;81.80;;;;;;20998792;28;20052;-58
2022/12/08 09:50:45;;;;;;;13.93;8.80;;;11.30;83.90;;;;;;20988401;28;20045;-59
2022/12/08 10:00:56;;;;;;;12.77;7.80;;;11.20;85.00;;;;;;21236557;27;20717;-59
2022/12/08 10:11:09;;;;;;;10.00;6.63;;;11.30;85.30;;;;;;21178977;27;20054;-60
2022/12/08 10:21:19;;;;;;;11.30;7.40;;;11.20;85.80;;;;;;21150145;28;20044;-59
2022/12/08 10:31:23;;;;;;;10.70;6.78;;;11.30;86.00;;;;;;21125721;28;20051;-57
2022/12/08 10:41:25;;;;;;;;;;;11.30;86.40;;;;;;21122866;28;20044;-59
2022/12/08 10:51:33;;;;;;;8.73;6.60;;;12.30;83.60;;;;;;21127555;28;19966;-64
2022/12/08 11:01:38;;;;;;;10.40;7.53;;;11.90;85.20;;;;;;21141443;28;20204;-59
2022/12/08 11:11:55;;;;;;;10.68;7.35;;;12.30;84.20;;;;;;21094023;28;20776;-59
2022/12/08 11:21:57;;;;;;;14.30;7.57;;;12.30;84.20;;;;;;21058607;28;20056;-65
2022/12/08 11:32:10;;;;;;;17.42;8.13;;;12.60;83.30;;;;;;21087865;28;20052;-61
2022/12/08 11:42:15;;;;;;;11.70;7.88;;;12.30;84.20;;;;;;21088700;28;20484;-60
2022/12/08 11:52:27;;;;;;;25.75;21.10;;;12.30;84.40;;;;;;21086848;28;20143;-58
2022/12/08 12:02:35;;;;;;;10.38;7.55;;;12.30;85.00;;;;;;21085899;28;20129;-59
2022/12/08 12:12:48;;;;;;;13.38;8.45;;;12.40;85.00;;;;;;21084282;28;20056;-58
2022/12/08 12:22:59;;;;;;;11.50;7.40;;;12.40;85.50;;;;;;21075642;28;20097;-59
2022/12/08 12:33:07;;;;;;;11.45;6.50;;;12.70;85.30;;;;;;21082356;28;20105;-58
2022/12/08 12:43:09;;;;;;;8.60;6.40;;;12.70;85.00;;;;;;21083527;28;20557;-57
2022/12/08 12:53:16;;;;;;;7.82;4.40;;;13.10;84.80;;;;;;21083497;28;20064;-59
2022/12/08 13:03:18;;;;;;;9.70;5.78;;;13.20;83.20;;;;;;21078471;28;20403;-58
2022/12/08 13:13:20;;;;;;;8.35;4.45;;;14.10;83.10;;;;;;21074533;28;20373;-62
2022/12/08 13:23:35;;;;;;;16.73;10.65;;;14.00;80.70;;;;;;21081552;28;20109;-62
2022/12/08 13:33:40;;;;;;;13.02;7.32;;;13.70;81.20;;;;;;21079883;28;20052;-61
2022/12/08 13:43:49;;;;;;;13.83;8.73;;;13.70;81.30;;;;;;21079830;28;20121;-60
2022/12/08 13:54:07;;;;;;;6.47;4.65;;;13.70;81.90;;;;;;21079228;28;20346;-62
2022/12/08 14:04:18;;;;;;;11.68;6.80;;;13.70;81.60;;;;;;21079700;28;20460;-59
2022/12/08 14:14:22;;;;;;;8.32;5.70;;;13.70;82.10;;;;;;21079205;28;20571;-60
2022/12/08 14:24:27;;;;;;;6.33;4.47;;;13.70;81.90;;;;;;21078335;28;20542;-58
2022/12/08 14:34:29;;;;;;;6.75;4.20;;;13.70;81.70;;;;;;21077739;28;20055;-58
2022/12/08 14:44:33;;;;;;;9.50;6.47;;;13.70;82.20;;;;;;21089090;28;20143;-57
2022/12/08 14:54:36;;;;;;;7.27;4.23;;;13.70;82.10;;;;;;21092676;28;20066;-57
2022/12/08 15:04:40;;;;;;;8.35;5.18;;;13.70;82.30;;;;;;21092684;28;20104;-57
2022/12/08 15:15:21;;;;;;;7.17;4.50;;;13.70;82.80;;;;;;21091528;28;20147;-58
2022/12/08 15:25:24;;;;;;;6.00;4.18;;;13.70;83.20;;;;;;20997995;28;20056;-59
2022/12/08 15:35:26;;;;;;;6.60;4.88;;;13.70;83.60;;;;;;20996380;28;20440;-59
2022/12/08 15:45:31;;;;;;;7.28;5.20;;;13.60;83.70;;;;;;20996822;28;20159;-58
2022/12/08 15:55:33;;;;;;;9.87;6.43;;;13.60;84.00;;;;;;21071226;28;20527;-59
2022/12/08 16:05:35;;;;;;;9.32;4.93;;;13.50;84.00;;;;;;21088130;28;20499;-60
2022/12/08 16:15:41;;;;;;;7.78;5.55;;;13.50;84.30;;;;;;21086143;28;20077;-59
2022/12/08 16:25:42;;;;;;;5.05;3.50;;;13.40;84.60;;;;;;21083805;28;20055;-58
2022/12/08 16:35:44;;;;;;;5.07;3.00;;;13.30;83.90;;;;;;21082796;28;20080;-58
2022/12/08 16:45:46;;;;;;;6.45;2.75;;;13.20;84.10;;;;;;21083073;28;20051;-57
2022/12/08 16:55:49;;;;;;;5.68;2.80;;;13.10;83.80;;;;;;21082860;28;20087;-59
2022/12/08 17:05:50;;;;;;;5.70;2.38;;;12.90;84.00;;;;;;21082039;28;20442;-58
2022/12/08 17:15:52;;;;;;;5.68;2.20;;;12.80;84.40;;;;;;21082025;28;20503;-59
2022/12/08 17:26:01;;;;;;;7.35;3.15;;;12.70;85.00;;;;;;21079269;28;20110;-59
2022/12/08 17:36:02;;;;;;;7.93;4.70;;;12.70;85.60;;;;;;21079449;28;20048;-59
2022/12/08 17:46:04;;;;;;;4.97;2.50;;;12.70;84.70;;;;;;21080361;28;20475;-59
2022/12/08 17:56:19;;;;;;;3.03;2.17;;;12.60;84.40;;;;;;21079116;28;20059;-57
2022/12/08 18:06:21;;;;;;;3.88;2.60;;;12.70;83.40;;;;;;21078798;28;20048;-56
2022/12/08 18:16:25;;;;;;;4.88;2.47;;;12.60;83.30;;;;;;21084949;28;20121;-57
2022/12/08 18:26:27;;;;;;;8.13;4.30;;;12.50;83.20;;;;;;21095405;28;20067;-59
2022/12/08 18:36:29;;;;;;;6.40;3.70;;;12.40;83.20;;;;;;21095271;28;20051;-57
2022/12/08 18:46:30;;;;;;;9.95;5.82;;;12.30;83.00;;;;;;21093603;28;20459;-56
2022/12/08 18:56:33;;;;;;;12.90;8.60;;;12.30;83.30;;;;;;21091742;28;20052;-57
2022/12/08 19:06:39;;;;;;;9.43;6.07;;;12.20;83.50;;;;;;21092765;28;20442;-58
2022/12/08 19:16:40;;;;;;;10.20;6.53;;;12.20;83.60;;;;;;21091100;28;20518;-58
2022/12/08 19:26:42;;;;;;;12.13;7.55;;;12.10;83.60;;;;;;21089553;28;20051;-57
2022/12/08 19:36:44;;;;;;;11.18;7.32;;;12.10;83.70;;;;;;21089346;28;20117;-62
2022/12/08 19:46:45;;;;;;;11.77;7.25;;;12.00;83.60;;;;;;21089913;28;20044;-59
2022/12/08 19:56:47;;;;;;;9.35;7.18;;;12.00;83.70;;;;;;21088213;28;20415;-58
2022/12/08 20:06:49;;;;;;;13.52;9.05;;;11.80;83.80;;;;;;21087191;28;20048;-60
2022/12/08 20:16:51;;;;;;;12.40;8.32;;;11.80;84.00;;;;;;21087631;28;20052;-58
2022/12/08 20:26:53;;;;;;;13.27;8.38;;;11.80;83.90;;;;;;21086267;28;20552;-60
2022/12/08 20:36:55;;;;;;;12.45;8.27;;;11.70;83.80;;;;;;21083075;28;20055;-58
2022/12/08 20:46:57;;;;;;;13.05;9.93;;;11.70;83.80;;;;;;21084573;28;20479;-60
2022/12/08 20:57:00;;;;;;;12.80;9.55;;;11.70;83.80;;;;;;21083342;28;20056;-59
2022/12/08 21:07:02;;;;;;;19.40;11.00;;;11.70;83.90;;;;;;21082677;28;20514;-59
2022/12/08 21:17:06;;;;;;;16.70;11.75;;;11.70;84.30;;;;;;21081435;28;20464;-59
2022/12/08 21:27:08;;;;;;;16.60;12.90;;;11.70;84.40;;;;;;21081315;28;20384;-63
2022/12/08 21:37:10;;;;;;;16.00;10.23;;;11.70;84.70;;;;;;21081625;28;20083;-59
2022/12/08 21:47:12;;;;;;;16.25;11.93;;;11.80;84.40;;;;;;21080056;28;20044;-59
2022/12/08 21:57:14;;;;;;;16.90;11.13;;;11.80;83.80;;;;;;21079095;28;20056;-59
2022/12/08 22:07:17;;;;;;;16.77;11.07;;;11.80;83.50;;;;;;21079367;28;20044;-57
2022/12/08 22:17:19;;;;;;;15.93;10.93;;;11.80;83.60;;;;;;21077900;28;20135;-59
2022/12/08 22:27:21;;;;;;;19.25;12.77;;;11.70;83.90;;;;;;21076949;28;20051;-60
2022/12/08 22:37:23;;;;;;;17.23;9.65;;;11.70;84.00;;;;;;21076102;28;20130;-61
2022/12/08 22:47:25;;;;;;;14.63;10.20;;;11.70;83.80;;;;;;21077713;28;20044;-61
2022/12/08 22:57:28;;;;;;;16.17;7.90;;;11.60;84.30;;;;;;21077359;28;20496;-59
2022/12/08 23:07:29;;;;;;;6.55;3.53;;;11.60;84.10;;;;;;21090906;28;20044;-60
2022/12/08 23:17:36;;;;;;;4.65;2.45;;;11.50;84.00;;;;;;21089749;28;20077;-58
2022/12/08 23:27:41;;;;;;;5.03;2.40;;;11.50;83.90;;;;;;21088926;28;20097;-59
2022/12/08 23:37:43;;;;;;;3.33;1.65;;;11.60;84.00;;;;;;21089222;28;20048;-58
2022/12/08 23:47:45;;;;;;;5.25;1.95;;;11.60;83.70;;;;;;21088863;28;20464;-59
2022/12/08 23:57:48;;;;;;;6.55;2.13;;;11.50;83.70;;;;;;21088099;28;20052;-60
